sensor_id;sensor_type;location;lat;lon;timestamp;P1;durP1;ratioP1;P2;durP2;ratioP2
44987;SDS011;35735;52.226;21.254;2022-11-20T00:04:13;78.75;;;40.75;;
44987;SDS011;35735;52.226;21.254;2022-11-20T00:09:16;77.80;;;41.08;;
44987;SDS011;35735;52.226;21.254;2022-11-20T00:14:17;81.50;;;40.53;;
44987;SDS011;35735;52.226;21.254;2022-11-20T00:19:18;83.95;;;42.15;;
44987;SDS011;35735;52.226;21.254;2022-11-20T00:24:22;79.25;;;40.67;;
44987;SDS011;35735;52.226;21.254;2022-11-20T00:29:31;78.60;;;40.63;;
44987;SDS011;35735;52.226;21.254;2022-11-20T00:34:32;79.85;;;40.42;;
44987;SDS011;35735;52.226;21.254;2022-11-20T00:39:33;73.62;;;39.10;;
44987;SDS011;35735;52.226;21.254;2022-11-20T00:44:35;75.37;;;38.67;;
44987;SDS011;35735;52.226;21.254;2022-11-20T00:49:36;79.65;;;40.72;;
44987;SDS011;35735;52.226;21.254;2022-11-20T00:54:40;79.28;;;40.00;;
44987;SDS011;35735;52.226;21.254;2022-11-20T00:59:42;71.68;;;38.75;;
44987;SDS011;35735;52.226;21.254;2022-11-20T01:04:43;75.37;;;39.45;;
44987;SDS011;35735;52.226;21.254;2022-11-20T01:09:45;73.87;;;39.63;;
44987;SDS011;35735;52.226;21.254;2022-11-20T01:14:46;74.80;;;39.42;;
44987;SDS011;35735;52.226;21.254;2022-11-20T01:19:48;73.53;;;38.70;;
44987;SDS011;35735;52.226;21.254;2022-11-20T01:24:50;70.35;;;36.35;;
44987;SDS011;35735;52.226;21.254;2022-11-20T01:29:51;69.53;;;38.00;;
44987;SDS011;35735;52.226;21.254;2022-11-20T01:34:55;66.80;;;36.85;;
44987;SDS011;35735;52.226;21.254;2022-11-20T01:39:56;70.68;;;36.47;;
44987;SDS011;35735;52.226;21.254;2022-11-20T01:44:58;70.75;;;37.15;;
44987;SDS011;35735;52.226;21.254;2022-11-20T02:00:24;68.43;;;36.83;;
44987;SDS011;35735;52.226;21.254;2022-11-20T02:05:35;63.78;;;33.80;;
44987;SDS011;35735;52.226;21.254;2022-11-20T02:10:43;63.00;;;33.10;;
44987;SDS011;35735;52.226;21.254;2022-11-20T02:15:50;64.40;;;33.85;;
44987;SDS011;35735;52.226;21.254;2022-11-20T02:20:57;66.97;;;34.47;;
44987;SDS011;35735;52.226;21.254;2022-11-20T02:26:08;71.10;;;35.50;;
44987;SDS011;35735;52.226;21.254;2022-11-20T02:31:13;66.43;;;34.28;;
44987;SDS011;35735;52.226;21.254;2022-11-20T02:36:15;65.53;;;35.30;;
44987;SDS011;35735;52.226;21.254;2022-11-20T02:41:19;65.18;;;34.03;;
44987;SDS011;35735;52.226;21.254;2022-11-20T02:51:25;64.40;;;34.47;;
44987;SDS011;35735;52.226;21.254;2022-11-20T02:56:28;62.28;;;33.83;;
44987;SDS011;35735;52.226;21.254;2022-11-20T03:01:30;67.75;;;35.78;;
44987;SDS011;35735;52.226;21.254;2022-11-20T03:06:33;66.32;;;34.85;;
44987;SDS011;35735;52.226;21.254;2022-11-20T03:11:34;60.67;;;33.55;;
44987;SDS011;35735;52.226;21.254;2022-11-20T03:16:35;58.33;;;33.22;;
44987;SDS011;35735;52.226;21.254;2022-11-20T03:21:36;60.25;;;32.25;;
44987;SDS011;35735;52.226;21.254;2022-11-20T03:26:38;62.03;;;33.95;;
44987;SDS011;35735;52.226;21.254;2022-11-20T03:31:40;60.88;;;32.13;;
44987;SDS011;35735;52.226;21.254;2022-11-20T03:36:43;59.53;;;32.08;;
44987;SDS011;35735;52.226;21.254;2022-11-20T03:41:44;59.22;;;31.85;;
44987;SDS011;35735;52.226;21.254;2022-11-20T03:46:45;59.60;;;31.40;;
44987;SDS011;35735;52.226;21.254;2022-11-20T03:51:46;58.55;;;32.65;;
44987;SDS011;35735;52.226;21.254;2022-11-20T03:56:47;57.97;;;31.15;;
44987;SDS011;35735;52.226;21.254;2022-11-20T04:01:48;59.75;;;30.77;;
44987;SDS011;35735;52.226;21.254;2022-11-20T04:06:51;57.70;;;31.33;;
44987;SDS011;35735;52.226;21.254;2022-11-20T04:11:52;57.35;;;30.75;;
44987;SDS011;35735;52.226;21.254;2022-11-20T04:16:53;58.28;;;31.20;;
44987;SDS011;35735;52.226;21.254;2022-11-20T04:21:54;53.13;;;28.52;;
44987;SDS011;35735;52.226;21.254;2022-11-20T04:26:55;54.85;;;30.48;;
44987;SDS011;35735;52.226;21.254;2022-11-20T04:31:56;55.92;;;30.12;;
44987;SDS011;35735;52.226;21.254;2022-11-20T04:36:57;53.60;;;28.05;;
44987;SDS011;35735;52.226;21.254;2022-11-20T04:41:58;51.13;;;28.70;;
44987;SDS011;35735;52.226;21.254;2022-11-20T04:46:59;53.95;;;27.83;;
44987;SDS011;35735;52.226;21.254;2022-11-20T04:52:00;54.08;;;29.23;;
44987;SDS011;35735;52.226;21.254;2022-11-20T04:57:01;53.85;;;28.02;;
44987;SDS011;35735;52.226;21.254;2022-11-20T05:02:02;47.65;;;27.10;;
44987;SDS011;35735;52.226;21.254;2022-11-20T05:07:03;55.33;;;29.08;;
44987;SDS011;35735;52.226;21.254;2022-11-20T05:12:06;52.40;;;28.98;;
44987;SDS011;35735;52.226;21.254;2022-11-20T05:17:11;55.75;;;30.42;;
44987;SDS011;35735;52.226;21.254;2022-11-20T05:22:12;52.00;;;29.10;;
44987;SDS011;35735;52.226;21.254;2022-11-20T05:27:13;51.67;;;28.65;;
44987;SDS011;35735;52.226;21.254;2022-11-20T05:32:14;53.83;;;28.00;;
44987;SDS011;35735;52.226;21.254;2022-11-20T05:37:18;58.22;;;29.27;;
44987;SDS011;35735;52.226;21.254;2022-11-20T05:42:19;56.03;;;29.08;;
44987;SDS011;35735;52.226;21.254;2022-11-20T05:47:20;50.33;;;28.38;;
44987;SDS011;35735;52.226;21.254;2022-11-20T05:52:21;52.15;;;28.92;;
44987;SDS011;35735;52.226;21.254;2022-11-20T05:57:22;55.58;;;30.45;;
44987;SDS011;35735;52.226;21.254;2022-11-20T06:02:25;51.13;;;29.08;;
44987;SDS011;35735;52.226;21.254;2022-11-20T06:07:26;50.78;;;28.33;;
44987;SDS011;35735;52.226;21.254;2022-11-20T06:12:27;53.65;;;29.30;;
44987;SDS011;35735;52.226;21.254;2022-11-20T06:17:39;55.85;;;30.37;;
44987;SDS011;35735;52.226;21.254;2022-11-20T06:22:40;54.95;;;30.02;;
44987;SDS011;35735;52.226;21.254;2022-11-20T06:27:41;57.15;;;30.55;;
44987;SDS011;35735;52.226;21.254;2022-11-20T06:32:49;63.85;;;32.90;;
44987;SDS011;35735;52.226;21.254;2022-11-20T06:37:50;71.25;;;34.67;;
44987;SDS011;35735;52.226;21.254;2022-11-20T06:42:54;63.97;;;36.05;;
44987;SDS011;35735;52.226;21.254;2022-11-20T06:47:56;67.57;;;36.33;;
44987;SDS011;35735;52.226;21.254;2022-11-20T06:53:00;57.25;;;32.33;;
44987;SDS011;35735;52.226;21.254;2022-11-20T06:58:02;62.10;;;33.25;;
44987;SDS011;35735;52.226;21.254;2022-11-20T07:03:04;57.10;;;30.35;;
44987;SDS011;35735;52.226;21.254;2022-11-20T07:08:06;56.15;;;31.00;;
44987;SDS011;35735;52.226;21.254;2022-11-20T07:13:07;56.78;;;29.70;;
44987;SDS011;35735;52.226;21.254;2022-11-20T07:18:09;56.85;;;31.33;;
44987;SDS011;35735;52.226;21.254;2022-11-20T07:23:09;59.20;;;32.83;;
44987;SDS011;35735;52.226;21.254;2022-11-20T07:28:10;57.00;;;30.88;;
44987;SDS011;35735;52.226;21.254;2022-11-20T07:33:14;55.40;;;31.75;;
44987;SDS011;35735;52.226;21.254;2022-11-20T07:38:15;57.78;;;31.95;;
44987;SDS011;35735;52.226;21.254;2022-11-20T07:43:16;57.55;;;30.27;;
44987;SDS011;35735;52.226;21.254;2022-11-20T07:48:17;55.70;;;30.40;;
44987;SDS011;35735;52.226;21.254;2022-11-20T07:53:18;64.43;;;33.60;;
44987;SDS011;35735;52.226;21.254;2022-11-20T07:58:19;53.25;;;30.27;;
44987;SDS011;35735;52.226;21.254;2022-11-20T08:03:21;51.00;;;29.87;;
44987;SDS011;35735;52.226;21.254;2022-11-20T08:08:22;59.40;;;31.65;;
44987;SDS011;35735;52.226;21.254;2022-11-20T08:13:24;53.35;;;29.90;;
44987;SDS011;35735;52.226;21.254;2022-11-20T08:18:25;48.60;;;28.58;;
44987;SDS011;35735;52.226;21.254;2022-11-20T08:23:26;54.13;;;29.77;;
44987;SDS011;35735;52.226;21.254;2022-11-20T08:28:29;47.78;;;27.77;;
44987;SDS011;35735;52.226;21.254;2022-11-20T08:33:30;50.47;;;29.85;;
44987;SDS011;35735;52.226;21.254;2022-11-20T08:38:33;47.70;;;28.48;;
44987;SDS011;35735;52.226;21.254;2022-11-20T08:43:34;50.47;;;27.98;;
44987;SDS011;35735;52.226;21.254;2022-11-20T08:48:36;47.60;;;26.67;;
44987;SDS011;35735;52.226;21.254;2022-11-20T08:53:37;46.25;;;26.35;;
44987;SDS011;35735;52.226;21.254;2022-11-20T08:58:40;44.33;;;25.95;;
44987;SDS011;35735;52.226;21.254;2022-11-20T09:03:41;43.45;;;26.20;;
44987;SDS011;35735;52.226;21.254;2022-11-20T09:08:44;44.20;;;26.50;;
44987;SDS011;35735;52.226;21.254;2022-11-20T09:13:45;42.30;;;24.75;;
44987;SDS011;35735;52.226;21.254;2022-11-20T09:18:45;37.80;;;23.00;;
44987;SDS011;35735;52.226;21.254;2022-11-20T09:23:46;43.25;;;23.62;;
44987;SDS011;35735;52.226;21.254;2022-11-20T09:28:47;41.83;;;24.83;;
44987;SDS011;35735;52.226;21.254;2022-11-20T09:33:47;41.90;;;24.50;;
44987;SDS011;35735;52.226;21.254;2022-11-20T09:38:48;37.83;;;21.90;;
44987;SDS011;35735;52.226;21.254;2022-11-20T09:43:51;39.63;;;24.25;;
44987;SDS011;35735;52.226;21.254;2022-11-20T09:49:32;37.50;;;23.77;;
44987;SDS011;35735;52.226;21.254;2022-11-20T09:54:48;42.08;;;25.05;;
44987;SDS011;35735;52.226;21.254;2022-11-20T09:59:50;43.28;;;24.98;;
44987;SDS011;35735;52.226;21.254;2022-11-20T10:05:08;39.08;;;23.55;;
44987;SDS011;35735;52.226;21.254;2022-11-20T10:10:18;36.97;;;22.67;;
44987;SDS011;35735;52.226;21.254;2022-11-20T10:15:36;36.10;;;22.40;;
44987;SDS011;35735;52.226;21.254;2022-11-20T10:20:57;39.35;;;23.52;;
44987;SDS011;35735;52.226;21.254;2022-11-20T10:32:18;42.45;;;23.70;;
44987;SDS011;35735;52.226;21.254;2022-11-20T10:37:26;35.58;;;22.87;;
44987;SDS011;35735;52.226;21.254;2022-11-20T10:42:35;42.17;;;24.42;;
44987;SDS011;35735;52.226;21.254;2022-11-20T10:47:46;42.20;;;24.17;;
44987;SDS011;35735;52.226;21.254;2022-11-20T10:52:56;39.65;;;23.65;;
44987;SDS011;35735;52.226;21.254;2022-11-20T10:58:12;37.35;;;23.30;;
44987;SDS011;35735;52.226;21.254;2022-11-20T11:03:28;34.25;;;21.08;;
44987;SDS011;35735;52.226;21.254;2022-11-20T11:08:32;36.60;;;22.55;;
44987;SDS011;35735;52.226;21.254;2022-11-20T11:13:38;35.25;;;22.20;;
44987;SDS011;35735;52.226;21.254;2022-11-20T11:18:38;35.65;;;22.15;;
44987;SDS011;35735;52.226;21.254;2022-11-20T11:23:40;34.50;;;22.13;;
44987;SDS011;35735;52.226;21.254;2022-11-20T11:28:42;37.53;;;23.55;;
44987;SDS011;35735;52.226;21.254;2022-11-20T11:34:13;38.00;;;23.23;;
44987;SDS011;35735;52.226;21.254;2022-11-20T11:39:15;36.47;;;22.73;;
44987;SDS011;35735;52.226;21.254;2022-11-20T11:44:27;36.70;;;22.83;;
44987;SDS011;35735;52.226;21.254;2022-11-20T11:49:32;37.67;;;22.73;;
44987;SDS011;35735;52.226;21.254;2022-11-20T11:54:43;37.67;;;24.73;;
44987;SDS011;35735;52.226;21.254;2022-11-20T12:00:02;37.88;;;22.45;;
44987;SDS011;35735;52.226;21.254;2022-11-20T12:05:28;38.25;;;22.92;;
44987;SDS011;35735;52.226;21.254;2022-11-20T12:10:41;35.25;;;22.45;;
44987;SDS011;35735;52.226;21.254;2022-11-20T12:15:50;41.65;;;25.20;;
44987;SDS011;35735;52.226;21.254;2022-11-20T12:37:09;42.28;;;24.33;;
44987;SDS011;35735;52.226;21.254;2022-11-20T12:48:38;38.50;;;24.00;;
44987;SDS011;35735;52.226;21.254;2022-11-20T12:53:58;39.60;;;25.08;;
44987;SDS011;35735;52.226;21.254;2022-11-20T13:09:59;37.35;;;21.62;;
44987;SDS011;35735;52.226;21.254;2022-11-20T13:15:26;35.45;;;22.75;;
44987;SDS011;35735;52.226;21.254;2022-11-20T13:20:44;38.28;;;23.12;;
44987;SDS011;35735;52.226;21.254;2022-11-20T13:25:45;34.38;;;21.40;;
44987;SDS011;35735;52.226;21.254;2022-11-20T13:30:49;35.03;;;21.98;;
44987;SDS011;35735;52.226;21.254;2022-11-20T13:35:59;35.90;;;22.10;;
44987;SDS011;35735;52.226;21.254;2022-11-20T13:46:36;39.33;;;24.33;;
44987;SDS011;35735;52.226;21.254;2022-11-20T13:51:43;43.65;;;26.52;;
44987;SDS011;35735;52.226;21.254;2022-11-20T13:56:54;41.10;;;24.33;;
44987;SDS011;35735;52.226;21.254;2022-11-20T14:02:09;47.65;;;25.73;;
44987;SDS011;35735;52.226;21.254;2022-11-20T14:07:13;48.53;;;26.58;;
44987;SDS011;35735;52.226;21.254;2022-11-20T14:12:16;53.05;;;32.90;;
44987;SDS011;35735;52.226;21.254;2022-11-20T14:17:22;49.63;;;29.95;;
44987;SDS011;35735;52.226;21.254;2022-11-20T14:22:33;55.10;;;32.25;;
44987;SDS011;35735;52.226;21.254;2022-11-20T14:27:34;47.42;;;28.25;;
44987;SDS011;35735;52.226;21.254;2022-11-20T14:32:38;45.90;;;26.15;;
44987;SDS011;35735;52.226;21.254;2022-11-20T14:37:38;42.33;;;25.60;;
44987;SDS011;35735;52.226;21.254;2022-11-20T14:42:43;49.92;;;31.92;;
44987;SDS011;35735;52.226;21.254;2022-11-20T14:47:44;51.53;;;30.80;;
44987;SDS011;35735;52.226;21.254;2022-11-20T14:52:51;59.63;;;34.30;;
44987;SDS011;35735;52.226;21.254;2022-11-20T14:58:01;55.97;;;33.10;;
44987;SDS011;35735;52.226;21.254;2022-11-20T15:03:03;55.83;;;33.42;;
44987;SDS011;35735;52.226;21.254;2022-11-20T15:08:16;51.40;;;30.88;;
44987;SDS011;35735;52.226;21.254;2022-11-20T15:13:20;50.72;;;31.52;;
44987;SDS011;35735;52.226;21.254;2022-11-20T15:18:31;49.28;;;31.50;;
44987;SDS011;35735;52.226;21.254;2022-11-20T15:23:37;71.95;;;38.97;;
44987;SDS011;35735;52.226;21.254;2022-11-20T15:28:39;50.40;;;29.92;;
44987;SDS011;35735;52.226;21.254;2022-11-20T15:33:42;55.33;;;30.98;;
44987;SDS011;35735;52.226;21.254;2022-11-20T15:38:43;48.83;;;29.92;;
44987;SDS011;35735;52.226;21.254;2022-11-20T15:43:43;53.05;;;30.83;;
44987;SDS011;35735;52.226;21.254;2022-11-20T15:48:44;51.03;;;30.65;;
44987;SDS011;35735;52.226;21.254;2022-11-20T15:53:51;54.72;;;32.38;;
44987;SDS011;35735;52.226;21.254;2022-11-20T15:58:52;55.55;;;31.48;;
44987;SDS011;35735;52.226;21.254;2022-11-20T16:03:52;51.58;;;30.48;;
44987;SDS011;35735;52.226;21.254;2022-11-20T16:08:53;53.20;;;32.25;;
44987;SDS011;35735;52.226;21.254;2022-11-20T16:13:53;56.95;;;32.60;;
44987;SDS011;35735;52.226;21.254;2022-11-20T16:18:54;61.70;;;35.90;;
44987;SDS011;35735;52.226;21.254;2022-11-20T16:23:55;53.65;;;30.88;;
44987;SDS011;35735;52.226;21.254;2022-11-20T16:29:00;63.92;;;33.83;;
44987;SDS011;35735;52.226;21.254;2022-11-20T16:34:03;52.67;;;29.73;;
44987;SDS011;35735;52.226;21.254;2022-11-20T16:39:06;58.25;;;33.90;;
44987;SDS011;35735;52.226;21.254;2022-11-20T16:44:08;54.40;;;31.12;;
44987;SDS011;35735;52.226;21.254;2022-11-20T16:49:13;50.25;;;28.62;;
44987;SDS011;35735;52.226;21.254;2022-11-20T16:54:13;50.63;;;28.55;;
44987;SDS011;35735;52.226;21.254;2022-11-20T16:59:14;50.70;;;29.40;;
44987;SDS011;35735;52.226;21.254;2022-11-20T17:04:14;48.40;;;28.42;;
44987;SDS011;35735;52.226;21.254;2022-11-20T17:09:15;50.22;;;28.95;;
44987;SDS011;35735;52.226;21.254;2022-11-20T17:14:16;45.03;;;27.33;;
44987;SDS011;35735;52.226;21.254;2022-11-20T17:19:17;49.63;;;28.95;;
44987;SDS011;35735;52.226;21.254;2022-11-20T17:24:17;48.97;;;28.50;;
44987;SDS011;35735;52.226;21.254;2022-11-20T17:29:18;48.15;;;26.67;;
44987;SDS011;35735;52.226;21.254;2022-11-20T17:34:18;49.85;;;28.35;;
44987;SDS011;35735;52.226;21.254;2022-11-20T17:39:19;44.42;;;25.08;;
44987;SDS011;35735;52.226;21.254;2022-11-20T17:44:20;50.60;;;29.83;;
44987;SDS011;35735;52.226;21.254;2022-11-20T17:49:20;51.90;;;29.00;;
44987;SDS011;35735;52.226;21.254;2022-11-20T17:54:21;56.97;;;32.85;;
44987;SDS011;35735;52.226;21.254;2022-11-20T17:59:21;47.78;;;28.02;;
44987;SDS011;35735;52.226;21.254;2022-11-20T18:04:22;53.92;;;29.33;;
44987;SDS011;35735;52.226;21.254;2022-11-20T18:09:22;65.97;;;36.13;;
44987;SDS011;35735;52.226;21.254;2022-11-20T18:14:23;55.40;;;31.23;;
44987;SDS011;35735;52.226;21.254;2022-11-20T18:19:24;51.03;;;29.80;;
44987;SDS011;35735;52.226;21.254;2022-11-20T18:24:27;56.75;;;30.33;;
44987;SDS011;35735;52.226;21.254;2022-11-20T18:29:28;52.03;;;30.73;;
44987;SDS011;35735;52.226;21.254;2022-11-20T18:34:28;52.65;;;30.05;;
44987;SDS011;35735;52.226;21.254;2022-11-20T18:39:29;56.45;;;32.65;;
44987;SDS011;35735;52.226;21.254;2022-11-20T18:44:30;54.67;;;31.05;;
44987;SDS011;35735;52.226;21.254;2022-11-20T18:49:31;52.75;;;31.62;;
44987;SDS011;35735;52.226;21.254;2022-11-20T18:54:33;50.83;;;29.30;;
44987;SDS011;35735;52.226;21.254;2022-11-20T18:59:35;49.15;;;28.05;;
44987;SDS011;35735;52.226;21.254;2022-11-20T19:04:35;50.28;;;28.35;;
44987;SDS011;35735;52.226;21.254;2022-11-20T19:09:43;50.10;;;28.87;;
44987;SDS011;35735;52.226;21.254;2022-11-20T19:14:47;53.40;;;31.83;;
44987;SDS011;35735;52.226;21.254;2022-11-20T19:19:48;65.93;;;38.53;;
44987;SDS011;35735;52.226;21.254;2022-11-20T19:24:48;56.35;;;32.88;;
44987;SDS011;35735;52.226;21.254;2022-11-20T19:29:49;58.92;;;32.17;;
44987;SDS011;35735;52.226;21.254;2022-11-20T19:34:50;60.65;;;33.75;;
44987;SDS011;35735;52.226;21.254;2022-11-20T19:39:50;62.55;;;34.22;;
44987;SDS011;35735;52.226;21.254;2022-11-20T19:44:51;60.58;;;32.58;;
44987;SDS011;35735;52.226;21.254;2022-11-20T19:49:51;59.05;;;33.25;;
44987;SDS011;35735;52.226;21.254;2022-11-20T19:54:52;56.28;;;31.87;;
44987;SDS011;35735;52.226;21.254;2022-11-20T19:59:52;59.85;;;33.40;;
44987;SDS011;35735;52.226;21.254;2022-11-20T20:04:53;54.10;;;31.42;;
44987;SDS011;35735;52.226;21.254;2022-11-20T20:09:53;55.78;;;32.65;;
44987;SDS011;35735;52.226;21.254;2022-11-20T20:14:54;58.40;;;32.35;;
44987;SDS011;35735;52.226;21.254;2022-11-20T20:19:54;59.25;;;33.33;;
44987;SDS011;35735;52.226;21.254;2022-11-20T20:24:55;58.47;;;33.05;;
44987;SDS011;35735;52.226;21.254;2022-11-20T20:29:55;56.17;;;31.73;;
44987;SDS011;35735;52.226;21.254;2022-11-20T20:34:56;103.15;;;47.25;;
44987;SDS011;35735;52.226;21.254;2022-11-20T20:39:56;75.00;;;39.13;;
44987;SDS011;35735;52.226;21.254;2022-11-20T20:44:57;63.70;;;35.83;;
44987;SDS011;35735;52.226;21.254;2022-11-20T20:49:58;60.50;;;34.13;;
44987;SDS011;35735;52.226;21.254;2022-11-20T20:54:58;56.08;;;33.00;;
44987;SDS011;35735;52.226;21.254;2022-11-20T20:59:59;60.53;;;33.92;;
44987;SDS011;35735;52.226;21.254;2022-11-20T21:04:59;59.10;;;33.70;;
44987;SDS011;35735;52.226;21.254;2022-11-20T21:10:00;57.72;;;31.23;;
44987;SDS011;35735;52.226;21.254;2022-11-20T21:15:00;59.25;;;32.63;;
44987;SDS011;35735;52.226;21.254;2022-11-20T21:20:01;60.78;;;35.08;;
44987;SDS011;35735;52.226;21.254;2022-11-20T21:25:01;67.82;;;37.38;;
44987;SDS011;35735;52.226;21.254;2022-11-20T21:30:02;64.62;;;35.75;;
44987;SDS011;35735;52.226;21.254;2022-11-20T21:35:03;64.72;;;37.63;;
44987;SDS011;35735;52.226;21.254;2022-11-20T21:40:04;58.05;;;33.35;;
44987;SDS011;35735;52.226;21.254;2022-11-20T21:45:05;56.97;;;32.38;;
44987;SDS011;35735;52.226;21.254;2022-11-20T21:50:06;58.83;;;33.90;;
44987;SDS011;35735;52.226;21.254;2022-11-20T21:55:07;61.33;;;34.25;;
44987;SDS011;35735;52.226;21.254;2022-11-20T22:00:08;61.75;;;35.03;;
44987;SDS011;35735;52.226;21.254;2022-11-20T22:05:11;57.75;;;32.97;;
44987;SDS011;35735;52.226;21.254;2022-11-20T22:10:11;58.87;;;33.63;;
44987;SDS011;35735;52.226;21.254;2022-11-20T22:15:12;61.17;;;33.00;;
44987;SDS011;35735;52.226;21.254;2022-11-20T22:20:14;59.03;;;33.63;;
44987;SDS011;35735;52.226;21.254;2022-11-20T22:25:15;59.90;;;32.60;;
44987;SDS011;35735;52.226;21.254;2022-11-20T22:30:16;57.90;;;32.78;;
44987;SDS011;35735;52.226;21.254;2022-11-20T22:35:16;55.33;;;31.42;;
44987;SDS011;35735;52.226;21.254;2022-11-20T22:40:17;60.40;;;32.97;;
44987;SDS011;35735;52.226;21.254;2022-11-20T22:45:17;59.53;;;33.88;;
44987;SDS011;35735;52.226;21.254;2022-11-20T22:50:18;62.97;;;33.85;;
44987;SDS011;35735;52.226;21.254;2022-11-20T22:55:18;59.80;;;33.45;;
44987;SDS011;35735;52.226;21.254;2022-11-20T23:00:19;60.88;;;33.75;;
44987;SDS011;35735;52.226;21.254;2022-11-20T23:05:20;59.97;;;34.75;;
44987;SDS011;35735;52.226;21.254;2022-11-20T23:10:20;60.33;;;33.47;;
44987;SDS011;35735;52.226;21.254;2022-11-20T23:15:21;58.72;;;33.00;;
44987;SDS011;35735;52.226;21.254;2022-11-20T23:20:21;56.83;;;33.13;;
44987;SDS011;35735;52.226;21.254;2022-11-20T23:25:22;57.20;;;33.67;;
44987;SDS011;35735;52.226;21.254;2022-11-20T23:30:22;54.13;;;32.10;;
44987;SDS011;35735;52.226;21.254;2022-11-20T23:35:23;60.53;;;34.10;;
44987;SDS011;35735;52.226;21.254;2022-11-20T23:40:24;59.97;;;33.20;;
44987;SDS011;35735;52.226;21.254;2022-11-20T23:45:24;58.30;;;33.67;;
44987;SDS011;35735;52.226;21.254;2022-11-20T23:50:25;59.60;;;34.10;;
44987;SDS011;35735;52.226;21.254;2022-11-20T23:55:25;62.25;;;33.90;;
